Date,TemperatureHighF,TemperatureAvgF,TemperatureLowF,DewpointHighF,DewpointAvgF,DewpointLowF,HumidityHigh,HumidityAvg,HumidityLow,PressureMaxIn,PressureMinIn,WindSpeedMaxMPH,WindSpeedAvgMPH,GustSpeedMaxMPH,PrecipitationSumIn
2012-1-1,55,44,37,-100,-100,-100,0,0,100,0.00,40.00,0,-999,0,0.00
2012-1-2,48,42,38,-100,-100,-100,0,0,100,0.00,40.00,0,-999,0,0.00
2012-1-3,50,42,38,-100,-100,-100,0,0,100,0.00,40.00,0,-999,0,0.00
2012-1-4,54,45,40,-100,-100,-100,0,0,100,0.00,40.00,0,-999,0,0.00
2012-1-5,49,41,34,-100,-100,-100,0,0,100,0.00,40.00,0,-999,0,0.00
2012-1-6,45,36,31,-100,-100,-100,0,0,100,0.00,40.00,0,-999,0,0.01
2012-1-7,34,28,20,-100,-100,-100,0,0,100,0.00,40.00,0,-999,0,0.00
2012-1-8,43,36,29,-100,-100,-100,0,0,100,0.00,40.00,0,-999,0,0.01
2012-1-9,52,38,32,-100,-100,-100,0,0,100,0.00,40.00,0,-999,0,0.01
2012-1-10,45,38,32,-100,-100,-100,0,0,100,0.00,40.00,0,-999,0,0.00
2012-1-11,45,33,26,-100,-100,-100,0,0,100,0.00,40.00,0,-999,0,0.00
2012-1-12,40,33,27,-100,-100,-100,0,0,100,0.00,40.00,0,-999,0,0.00
2012-1-13,50,39,30,-100,-100,-100,0,0,100,0.00,40.00,0,-999,0,0.00
2012-1-14,48,38,32,-100,-100,-100,0,0,100,0.00,40.00,0,-999,0,0.00
2012-1-15,37,30,22,-100,-100,-100,0,0,100,0.00,40.00,0,-999,0,0.00
2012-1-16,25,16,6,-100,-100,-100,0,0,100,0.00,40.00,0,-999,0,0.00
2012-1-17,31,24,14,-100,-100,-100,0,0,100,0.00,40.00,0,-999,0,0.01
2012-1-18,40,32,26,-100,-100,-100,0,0,100,0.00,40.00,0,-999,0,0.01
2012-1-19,38,32,27,-100,-100,-100,0,0,100,0.00,40.00,0,-999,0,0.01
2012-1-20,36,34,32,-100,-100,-100,0,0,100,0.00,40.00,0,-999,0,0.03
2012-1-21,34,23,13,-100,-100,-100,0,0,100,0.00,40.00,0,-999,0,0.05
2012-1-22,29,22,14,-100,-100,-100,0,0,100,0.00,40.00,0,-999,0,0.02
2012-1-23,32,27,19,-100,-100,-100,0,0,100,0.00,40.00,0,-999,0,0.05
2012-1-24,41,33,16,-100,-100,-100,0,0,100,0.00,40.00,0,-999,0,0.01
2012-1-25,47,39,34,-100,-100,-100,0,0,100,0.00,40.00,0,-999,0,0.01
2012-1-26,39,36,30,-100,-100,-100,0,0,100,0.00,40.00,0,-999,0,0.00
2012-1-27,33,26,19,-100,-100,-100,0,0,100,0.00,40.00,0,-999,0,0.00
2012-1-28,46,34,25,-100,-100,-100,0,0,100,0.00,40.00,0,-999,0,0.01
2012-1-29,48,38,33,-100,-100,-100,0,0,100,0.00,40.00,0,-999,0,0.00
2012-1-30,44,35,29,-100,-100,-100,0,0,100,0.00,40.00,0,-999,0,0.00
2012-1-31,44,32,25,-100,-100,-100,0,0,100,0.00,40.00,0,-999,0,0.00
2012-2-1,34,29,24,-100,-100,-100,0,0,100,0.00,40.00,0,-999,0,0.01
2012-2-2,34,27,15,-100,-100,-100,0,0,100,0.00,40.00,0,-999,0,0.00
2012-2-3,39,25,14,-100,-100,-100,0,0,100,0.00,40.00,0,-999,0,0.00
2012-2-4,34,23,16,-100,-100,-100,0,0,100,0.00,40.00,0,-999,0,0.00
2012-2-5,36,24,17,-100,-100,-100,0,0,100,0.00,40.00,0,-999,0,0.00
2012-2-6,43,32,24,-100,-100,-100,0,0,100,0.00,40.00,0,-999,0,0.00
2012-2-7,35,31,29,-100,-100,-100,0,0,100,0.00,40.00,0,-999,0,0.00
2012-2-8,44,34,24,-100,-100,-100,0,0,100,0.00,40.00,0,-999,0,0.00
2012-2-9,49,38,32,-100,-100,-100,0,0,100,0.00,40.00,0,-999,0,0.00
2012-2-10,43,36,32,-100,-100,-100,0,0,100,0.00,40.00,0,-999,0,0.00
2012-2-11,34,30,26,-100,-100,-100,0,0,100,0.00,40.00,0,-999,0,0.01
2012-2-12,37,28,19,-100,-100,-100,0,0,100,0.00,40.00,0,-999,0,0.00
2012-2-13,26,22,14,-100,-100,-100,0,0,100,0.00,40.00,0,-999,0,0.01
2012-2-14,37,24,20,-100,-100,-100,0,0,100,0.00,40.00,0,-999,0,0.01
2012-2-15,20,16,12,-100,-100,-100,0,0,100,0.00,40.00,0,-999,0,0.01
2012-2-16,39,25,15,-100,-100,-100,0,0,100,0.00,40.00,0,-999,0,0.01
2012-2-17,46,35,29,-100,-100,-100,0,0,100,0.00,40.00,0,-999,0,0.00
2012-2-18,32,28,22,-100,-100,-100,0,0,100,0.00,40.00,0,-999,0,0.00
2012-2-19,32,22,11,-100,-100,-100,0,0,100,0.00,40.00,0,-999,0,0.00
2012-2-20,34,28,23,-100,-100,-100,0,0,100,0.00,40.00,0,-999,0,0.01
2012-2-21,42,37,30,-100,-100,-100,0,0,100,0.00,40.00,0,-999,0,0.00
2012-2-22,48,38,32,-100,-100,-100,0,0,100,0.00,40.00,0,-999,0,0.00
2012-2-23,43,37,30,-100,-100,-100,0,0,100,0.00,40.00,0,-999,0,0.00
2012-2-24,49,38,32,-100,-100,-100,0,0,100,0.00,40.00,0,-999,0,0.00
2012-2-25,35,30,22,-100,-100,-100,0,0,100,0.00,40.00,0,-999,0,0.00
2012-2-26,35,24,15,-100,-100,-100,0,0,100,0.00,40.00,0,-999,0,0.00
2012-2-27,25,19,12,-100,-100,-100,0,0,100,0.00,40.00,0,-999,0,0.01
2012-2-28,26,17,9,-100,-100,-100,0,0,100,0.00,40.00,0,-999,0,0.01
2012-2-29,25,21,17,-100,-100,-100,0,0,100,0.00,40.00,0,-999,0,0.02
2012-3-1,25,19,15,-100,-100,-100,0,0,100,0.00,40.00,0,-999,0,0.01
2012-3-2,39,26,11,-100,-100,-100,0,0,100,0.00,40.00,0,-999,0,0.01
2012-3-3,52,40,31,-100,-100,-100,0,0,100,0.00,40.00,0,-999,0,0.00
2012-3-4,52,41,34,-100,-100,-100,0,0,100,0.00,40.00,0,-999,0,0.00
2012-3-5,48,39,31,-100,-100,-100,0,0,100,0.00,40.00,0,-999,0,0.00
2012-3-6,31,19,8,-100,-100,-100,0,0,100,0.00,40.00,0,-999,0,0.02
2012-3-7,35,23,5,-100,-100,-100,0,0,100,0.00,40.00,0,-999,0,0.01
2012-3-8,46,36,27,-100,-100,-100,0,0,100,0.00,40.00,0,-999,0,0.01
2012-3-9,52,43,34,-100,-100,-100,0,0,100,0.00,40.00,0,-999,0,0.00
2012-3-10,46,37,30,-100,-100,-100,0,0,100,0.00,40.00,0,-999,0,0.00
2012-3-11,36,31,26,-100,-100,-100,0,0,100,0.00,40.00,0,-999,0,0.00
2012-3-12,39,28,24,-100,-100,-100,0,0,100,0.00,40.00,0,-999,0,0.00
2012-3-13,35,30,27,-100,-100,-100,0,0,100,0.00,40.00,0,-999,0,0.00
2012-3-14,35,32,29,-100,-100,-100,0,0,100,0.00,40.00,0,-999,0,0.01
2012-3-15,36,34,32,-100,-100,-100,0,0,100,0.00,40.00,0,-999,0,0.01
2012-3-16,34,32,28,-100,-100,-100,0,0,100,0.00,40.00,0,-999,0,0.04
2012-3-17,27,21,16,-100,-100,-100,0,0,100,0.00,40.00,0,-999,0,0.05
2012-3-18,26,17,12,-100,-100,-100,0,0,100,0.00,40.00,0,-999,0,0.01
2012-3-19,29,17,5,-100,-100,-100,0,0,100,0.00,40.00,0,-999,0,0.00
2012-3-20,39,32,28,-100,-100,-100,0,0,100,0.00,40.00,0,-999,0,0.01
2012-3-21,46,36,30,-100,-100,-100,0,0,100,0.00,40.00,0,-999,0,0.00
2012-3-22,43,36,32,-100,-100,-100,0,0,100,0.00,40.00,0,-999,0,0.00
2012-3-23,37,30,24,-100,-100,-100,0,0,100,0.00,40.00,0,-999,0,0.00
2012-3-24,41,33,29,-100,-100,-100,0,0,100,0.00,40.00,0,-999,0,0.00
2012-3-25,34,28,21,-100,-100,-100,0,0,100,0.00,40.00,0,-999,0,0.01
2012-3-26,31,23,19,-100,-100,-100,0,0,100,0.00,40.00,0,-999,0,0.01
2012-3-27,32,27,23,-100,-100,-100,0,0,100,0.00,40.00,0,-999,0,0.00
2012-3-28,33,30,27,-100,-100,-100,0,0,100,0.00,40.00,0,-999,0,0.02
2012-3-29,41,33,25,-100,-100,-100,0,0,100,0.00,40.00,0,-999,0,0.00
2012-3-30,45,38,33,-100,-100,-100,0,0,100,0.00,40.00,0,-999,0,0.00
2012-3-31,36,28,17,-100,-100,-100,0,0,100,0.00,40.00,0,-999,0,0.02
2012-4-1,32,22,18,-100,-100,-100,0,0,100,0.00,40.00,0,-999,0,0.01
2012-4-2,41,31,18,-100,-100,-100,0,0,100,0.00,40.00,0,-999,0,0.00
2012-4-3,51,38,33,-100,-100,-100,0,0,100,0.00,40.00,0,-999,0,0.00
2012-4-4,34,26,15,-100,-100,-100,0,0,100,0.00,40.00,0,-999,0,0.00
2012-4-5,24,15,11,-100,-100,-100,0,0,100,0.00,40.00,0,-999,0,0.00
2012-4-6,35,20,7,-100,-100,-100,0,0,100,0.00,40.00,0,-999,0,0.00
2012-4-7,44,34,25,-100,-100,-100,0,0,100,0.00,40.00,0,-999,0,0.00
2012-4-8,50,38,30,-100,-100,-100,0,0,100,0.00,40.00,0,-999,0,0.00
2012-4-9,50,38,31,-100,-100,-100,0,0,100,0.00,40.00,0,-999,0,0.00
2012-4-10,46,37,32,-100,-100,-100,0,0,100,0.00,40.00,0,-999,0,0.00
2012-4-11,32,27,22,-100,-100,-100,0,0,100,0.00,40.00,0,-999,0,0.00
2012-4-12,30,24,20,-100,-100,-100,0,0,100,0.00,40.00,0,-999,0,0.02
2012-4-13,32,23,19,-100,-100,-100,0,0,100,0.00,40.00,0,-999,0,0.02
2012-4-14,35,26,18,-100,-100,-100,0,0,100,0.00,40.00,0,-999,0,0.01
2012-4-15,43,31,23,-100,-100,-100,0,0,100,0.00,40.00,0,-999,0,0.00
2012-4-16,47,37,32,-100,-100,-100,0,0,100,0.00,40.00,0,-999,0,0.00
2012-4-17,49,38,30,-100,-100,-100,0,0,100,0.00,40.00,0,-999,0,0.00
2012-4-18,47,38,33,-100,-100,-100,0,0,100,0.00,40.00,0,-999,0,0.00
2012-4-19,52,44,35,-100,-100,-100,0,0,100,0.00,40.00,0,-999,0,0.00
2012-4-20,57,46,38,-100,-100,-100,0,0,100,0.00,40.00,0,-999,0,0.00
2012-4-21,62,49,43,-100,-100,-100,0,0,100,0.00,40.00,0,-999,0,0.00
2012-4-22,61,51,44,-100,-100,-100,0,0,100,0.00,40.00,0,-999,0,0.00
2012-4-23,55,46,43,-100,-100,-100,0,0,100,0.00,40.00,0,-999,0,0.00
2012-4-24,55,45,40,-100,-100,-100,0,0,100,0.00,40.00,0,-999,0,0.00
2012-4-25,42,39,36,-100,-100,-100,0,0,100,0.00,40.00,0,-999,0,0.01
2012-4-26,39,34,25,-100,-100,-100,0,0,100,0.00,40.00,0,-999,0,0.01
2012-4-27,46,33,23,-100,-100,-100,0,0,100,0.00,40.00,0,-999,0,0.01
2012-4-28,47,38,30,-100,-100,-100,0,0,100,0.00,40.00,0,-999,0,0.00
2012-4-29,54,40,33,-100,-100,-100,0,0,100,0.00,40.00,0,-999,0,0.00
2012-4-30,53,44,40,-100,-100,-100,0,0,100,0.00,40.00,0,-999,0,0.00
2012-5-1,47,40,36,-100,-100,-100,0,0,100,0.00,40.00,0,-999,0,0.00
2012-5-2,50,41,34,-100,-100,-100,0,0,100,0.00,40.00,0,-999,0,0.00
2012-5-3,44,38,31,-100,-100,-100,0,0,100,0.00,40.00,0,-999,0,0.01
2012-5-4,42,33,27,-100,-100,-100,0,0,100,0.00,40.00,0,-999,0,0.00
2012-5-5,38,29,24,-100,-100,-100,0,0,100,0.00,40.00,0,-999,0,0.00
2012-5-6,46,37,30,-100,-100,-100,0,0,100,0.00,40.00,0,-999,0,0.00
2012-5-7,47,39,33,-100,-100,-100,0,0,100,0.00,40.00,0,-999,0,0.00
2012-5-8,58,45,41,-100,-100,-100,0,0,100,0.00,40.00,0,-999,0,0.00
2012-5-9,61,50,43,-100,-100,-100,0,0,100,0.00,40.00,0,-999,0,0.00
2012-5-10,51,45,40,-100,-100,-100,0,0,100,0.00,40.00,0,-999,0,0.01
2012-5-11,50,43,35,-100,-100,-100,0,0,100,0.00,40.00,0,-999,0,0.00
2012-5-12,55,44,39,-100,-100,-100,0,0,100,0.00,40.00,0,-999,0,0.00
2012-5-13,63,54,43,-100,-100,-100,0,0,100,0.00,40.00,0,-999,0,0.00
2012-5-14,48,45,42,-100,-100,-100,0,0,100,0.00,40.00,0,-999,0,0.00
2012-5-18,52,40,32,-100,-100,-100,0,0,100,0.00,40.00,0,-999,0,0.00
2012-5-19,57,44,37,-100,-100,-100,0,0,100,0.00,40.00,0,-999,0,0.00
2012-5-20,64,53,44,-100,-100,-100,0,0,100,0.00,40.00,0,-999,0,0.00
2012-5-21,57,49,44,-100,-100,-100,0,0,100,0.00,40.00,0,-999,0,0.01
2012-5-22,56,48,41,-100,-100,-100,0,0,100,0.00,40.00,0,-999,0,0.01
2012-5-23,51,43,36,-100,-100,-100,0,0,100,0.00,40.00,0,-999,0,0.01
2012-5-24,51,39,31,-100,-100,-100,0,0,100,0.00,40.00,0,-999,0,0.00
2012-5-25,31,28,25,-100,-100,-100,0,0,100,0.00,40.00,0,-999,0,0.02
2012-5-26,32,29,27,-100,-100,-100,0,0,100,0.00,40.00,0,-999,0,0.01
2012-5-27,44,39,33,-100,-100,-100,0,0,100,0.00,40.00,0,-999,0,0.00
2012-5-28,53,40,32,-100,-100,-100,0,0,100,0.00,40.00,0,-999,0,0.00
2012-5-29,56,45,37,-100,-100,-100,0,0,100,0.00,40.00,0,-999,0,0.00
2012-5-30,64,53,43,-100,-100,-100,0,0,100,0.00,40.00,0,-999,0,0.00
2012-5-31,66,56,48,-100,-100,-100,0,0,100,0.00,40.00,0,-999,0,0.00
2012-6-1,68,56,50,-100,-100,-100,0,0,100,0.00,40.00,0,-999,0,0.00
2012-6-2,62,52,47,-100,-100,-100,0,0,100,0.00,40.00,0,-999,0,0.01
2012-6-3,65,54,47,-100,-100,-100,0,0,100,0.00,40.00,0,-999,0,0.00
2012-6-4,47,38,25,-100,-100,-100,0,0,100,0.00,40.00,0,-999,0,0.04
2012-6-5,36,29,20,-100,-100,-100,0,0,100,0.00,40.00,0,-999,0,0.01
2012-6-6,52,38,27,-100,-100,-100,0,0,100,0.00,40.00,0,-999,0,0.00
2012-6-7,56,44,36,-100,-100,-100,0,0,100,0.00,40.00,0,-999,0,0.00
2012-6-8,55,46,41,-100,-100,-100,0,0,100,0.00,40.00,0,-999,0,0.00
2012-6-9,55,43,38,-100,-100,-100,0,0,100,0.00,40.00,0,-999,0,0.02
2012-6-10,54,43,31,-100,-100,-100,0,0,100,0.00,40.00,0,-999,0,0.01
2012-6-11,63,51,40,-100,-100,-100,0,0,100,0.00,40.00,0,-999,0,0.00
2012-6-12,64,53,45,-100,-100,-100,0,0,100,0.00,40.00,0,-999,0,0.00
2012-6-13,66,56,45,-100,-100,-100,0,0,100,0.00,40.00,0,-999,0,0.00
2012-6-14,67,56,48,-100,-100,-100,0,0,100,0.00,40.00,0,-999,0,0.00
2012-6-15,65,55,46,-100,-100,-100,0,0,100,0.00,40.00,0,-999,0,0.00
2012-6-16,71,59,53,-100,-100,-100,0,0,100,0.00,40.00,0,-999,0,0.00
2012-6-17,57,54,53,-100,-100,-100,0,0,100,0.00,40.00,0,-999,0,0.00
2012-6-18,62,54,51,-100,-100,-100,0,0,100,0.00,40.00,0,-999,0,0.00
2012-6-19,62,53,47,-100,-100,-100,0,0,100,0.00,40.00,0,-999,0,0.01
2012-6-20,70,55,42,-100,-100,-100,0,0,100,0.00,40.00,0,-999,0,0.00
2012-6-21,66,55,49,-100,-100,-100,0,0,100,0.00,40.00,0,-999,0,0.01
2012-6-22,57,48,40,-100,-100,-100,0,0,100,0.00,40.00,0,-999,0,0.01
2012-6-23,52,44,40,-100,-100,-100,0,0,100,0.00,40.00,0,-999,0,0.01
2012-6-24,56,46,39,-100,-100,-100,0,0,100,0.00,40.00,0,-999,0,0.00
2012-6-25,56,47,40,-100,-100,-100,0,0,100,0.00,40.00,0,-999,0,0.00
2012-6-26,60,46,33,-100,-100,-100,0,0,100,0.00,40.00,0,-999,0,0.00
2012-6-27,65,52,42,-100,-100,-100,0,0,100,0.00,40.00,0,-999,0,0.00
2012-6-28,65,52,43,-100,-100,-100,0,0,100,0.00,40.00,0,-999,0,0.00
2012-6-29,66,54,44,-100,-100,-100,0,0,100,0.00,40.00,0,-999,0,0.00
2012-6-30,63,54,47,-100,-100,-100,0,0,100,0.00,40.00,0,-999,0,0.00
2012-7-1,65,54,44,-100,-100,-100,0,0,100,0.00,40.00,0,-999,0,0.00
2012-7-2,68,57,51,-100,-100,-100,0,0,100,0.00,40.00,0,-999,0,0.00
2012-7-3,67,56,49,-100,-100,-100,0,0,100,0.00,40.00,0,-999,0,0.00
2012-7-4,68,57,49,-100,-100,-100,0,0,100,0.00,40.00,0,-999,0,0.00
2012-7-5,65,54,45,-100,-100,-100,0,0,100,0.00,40.00,0,-999,0,0.01
2012-7-6,69,56,46,-100,-100,-100,0,0,100,0.00,40.00,0,-999,0,0.00
2012-7-7,72,59,51,-100,-100,-100,0,0,100,0.00,40.00,0,-999,0,0.00
2012-7-8,72,59,51,-100,-100,-100,0,0,100,0.00,40.00,0,-999,0,0.00
2012-7-9,73,61,51,-100,-100,-100,0,0,100,0.00,40.00,0,-999,0,0.00
2012-7-10,76,63,54,-100,-100,-100,0,0,100,0.00,40.00,0,-999,0,0.00
2012-7-11,76,63,55,-100,-100,-100,0,0,100,0.00,40.00,0,-999,0,0.00
2012-7-12,74,62,57,-100,-100,-100,0,0,100,0.00,40.00,0,-999,0,0.00
2012-7-13,72,59,52,-100,-100,-100,0,0,100,0.00,40.00,0,-999,0,0.01
2012-7-14,68,57,47,-100,-100,-100,0,0,100,0.00,40.00,0,-999,0,0.01
2012-7-15,67,56,48,-100,-100,-100,0,0,100,0.00,40.00,0,-999,0,0.00
2012-7-16,63,52,47,-100,-100,-100,0,0,100,0.00,40.00,0,-999,0,0.00
2012-7-17,62,54,47,-100,-100,-100,0,0,100,0.00,40.00,0,-999,0,0.01
2012-7-18,64,53,43,-100,-100,-100,0,0,100,0.00,40.00,0,-999,0,0.00
2012-7-19,59,52,50,-100,-100,-100,0,0,100,0.00,40.00,0,-999,0,0.02
2012-7-20,67,56,47,-100,-100,-100,0,0,100,0.00,40.00,0,-999,0,0.01
2012-7-21,72,61,51,-100,-100,-100,0,0,100,0.00,40.00,0,-999,0,0.00
2012-7-22,70,61,53,-100,-100,-100,0,0,100,0.00,40.00,0,-999,0,0.00
2012-7-23,62,56,50,-100,-100,-100,0,0,100,0.00,40.00,0,-999,0,0.01
2012-7-24,69,57,49,-100,-100,-100,0,0,100,0.00,40.00,0,-999,0,0.01
2012-7-25,72,58,48,-100,-100,-100,0,0,100,0.00,40.00,0,-999,0,0.00
2012-7-26,69,59,51,-100,-100,-100,0,0,100,0.00,40.00,0,-999,0,0.00
2012-7-27,69,56,48,-100,-100,-100,0,0,100,0.00,40.00,0,-999,0,0.00
2012-7-28,67,55,49,-100,-100,-100,0,0,100,0.00,40.00,0,-999,0,0.00
2012-7-29,73,61,52,-100,-100,-100,0,0,100,0.00,40.00,0,-999,0,0.00
2012-7-30,73,59,51,-100,-100,-100,0,0,100,0.00,40.00,0,-999,0,0.00
2012-7-31,75,61,53,-100,-100,-100,0,0,100,0.00,40.00,0,-999,0,0.00
2012-8-1,74,63,52,-100,-100,-100,0,0,100,0.00,40.00,0,-999,0,0.00
2012-8-2,75,65,53,-100,-100,-100,0,0,100,0.00,40.00,0,-999,0,0.00
2012-8-3,75,64,55,-100,-100,-100,0,0,100,0.00,40.00,0,-999,0,0.00
2012-8-4,74,62,50,-100,-100,-100,0,0,100,0.00,40.00,0,-999,0,0.01
2012-8-5,68,57,48,-100,-100,-100,0,0,100,0.00,40.00,0,-999,0,0.01
2012-8-6,71,59,52,-100,-100,-100,0,0,100,0.00,40.00,0,-999,0,0.00
2012-8-7,72,60,53,-100,-100,-100,0,0,100,0.00,40.00,0,-999,0,0.00
2012-8-8,74,62,55,-100,-100,-100,0,0,100,0.00,40.00,0,-999,0,0.00
2012-8-9,78,68,58,-100,-100,-100,0,0,100,0.00,40.00,0,-999,0,0.00
2012-8-10,76,64,56,-100,-100,-100,0,0,100,0.00,40.00,0,-999,0,0.01
2012-8-11,74,63,55,-100,-100,-100,0,0,100,0.00,40.00,0,-999,0,0.00
2012-8-12,72,61,56,-100,-100,-100,0,0,100,0.00,40.00,0,-999,0,0.02
2012-8-13,70,58,50,-100,-100,-100,0,0,100,0.00,40.00,0,-999,0,0.56
2012-8-14,71,59,52,-100,-100,-100,0,0,100,0.00,40.00,0,-999,0,0.01
2012-8-15,68,59,53,-100,-100,-100,0,0,100,0.00,40.00,0,-999,0,0.01
2012-8-16,73,60,53,-100,-100,-100,0,0,100,0.00,40.00,0,-999,0,0.01
2012-8-17,72,61,56,-100,-100,-100,0,0,100,0.00,40.00,0,-999,0,0.02
2012-8-18,61,58,55,-100,-100,-100,0,0,100,0.00,40.00,0,-999,0,0.01
2012-8-19,69,58,52,-100,-100,-100,0,0,100,0.00,40.00,0,-999,0,0.01
2012-8-20,72,60,52,-100,-100,-100,0,0,100,0.00,40.00,0,-999,0,0.00
2012-8-21,67,57,50,-100,-100,-100,0,0,100,0.00,40.00,0,-999,0,0.01
2012-8-22,67,57,50,-100,-100,-100,0,0,100,0.00,40.00,0,-999,0,0.00
2012-8-23,69,57,50,-100,-100,-100,0,0,100,0.00,40.00,0,-999,0,0.00
2012-8-24,70,59,51,-100,-100,-100,0,0,100,0.00,40.00,0,-999,0,0.00
2012-8-25,69,58,52,-100,-100,-100,0,0,100,0.00,40.00,0,-999,0,0.01
2012-8-26,65,56,50,-100,-100,-100,0,0,100,0.00,40.00,0,-999,0,0.00
2012-8-27,66,54,47,-100,-100,-100,0,0,100,0.00,40.00,0,-999,0,0.01
2012-8-28,68,55,47,-100,-100,-100,0,0,100,0.00,40.00,0,-999,0,0.00
2012-8-29,70,57,49,-100,-100,-100,0,0,100,0.00,40.00,0,-999,0,0.00
2012-8-30,70,59,51,-100,-100,-100,0,0,100,0.00,40.00,0,-999,0,0.00
2012-8-31,65,56,44,-100,-100,-100,0,0,100,0.00,40.00,0,-999,0,0.01
2012-9-1,62,51,41,-100,-100,-100,0,0,100,0.00,40.00,0,-999,0,0.01
2012-9-2,65,55,49,-100,-100,-100,0,0,100,0.00,40.00,0,-999,0,0.00
2012-9-3,69,56,49,-100,-100,-100,0,0,100,0.00,40.00,0,-999,0,0.00
2012-9-4,68,57,47,-100,-100,-100,0,0,100,0.00,40.00,0,-999,0,0.01
2012-9-5,60,54,48,-100,-100,-100,0,0,100,0.00,40.00,0,-999,0,0.01
2012-9-6,58,51,46,-100,-100,-100,0,0,100,0.00,40.00,0,-999,0,0.01
2012-9-7,65,56,49,-100,-100,-100,0,0,100,0.00,40.00,0,-999,0,0.01
2012-9-8,71,60,53,-100,-100,-100,0,0,100,0.00,40.00,0,-999,0,0.00
2012-9-9,67,58,52,-100,-100,-100,0,0,100,0.00,40.00,0,-999,0,0.01
2012-9-10,67,55,48,-100,-100,-100,0,0,100,0.00,40.00,0,-999,0,0.01
2012-9-11,63,54,46,-100,-100,-100,0,0,100,0.00,40.00,0,-999,0,0.01
2012-9-12,63,54,47,-100,-100,-100,0,0,100,0.00,40.00,0,-999,0,0.00
2012-9-13,66,59,49,-100,-100,-100,0,0,100,0.00,40.00,0,-999,0,0.00
2012-9-14,67,57,51,-100,-100,-100,0,0,100,0.00,40.00,0,-999,0,0.00
2012-9-15,67,55,48,-100,-100,-100,0,0,100,0.00,40.00,0,-999,0,0.00
2012-9-16,63,53,47,-100,-100,-100,0,0,100,0.00,40.00,0,-999,0,0.00
2012-9-17,63,54,45,-100,-100,-100,0,0,100,0.00,40.00,0,-999,0,0.00
2012-9-18,67,56,47,-100,-100,-100,0,0,100,0.00,40.00,0,-999,0,0.00
2012-9-19,67,55,48,-100,-100,-100,0,0,100,0.00,40.00,0,-999,0,0.00
2012-9-20,66,56,49,-100,-100,-100,0,0,100,0.00,40.00,0,-999,0,0.00
2012-9-21,68,55,50,-100,-100,-100,0,0,100,0.00,40.00,0,-999,0,0.00
2012-9-22,66,54,48,-100,-100,-100,0,0,100,0.00,40.00,0,-999,0,0.01
2012-9-23,59,52,45,-100,-100,-100,0,0,100,0.00,40.00,0,-999,0,0.01
2012-9-24,60,51,45,-100,-100,-100,0,0,100,0.00,40.00,0,-999,0,0.01
2012-9-25,59,48,40,-100,-100,-100,0,0,100,0.00,40.00,0,-999,0,0.01
2012-9-26,60,51,43,-100,-100,-100,0,0,100,0.00,40.00,0,-999,0,0.00
2012-9-27,63,52,46,-100,-100,-100,0,0,100,0.00,40.00,0,-999,0,0.00
2012-9-28,59,51,45,-100,-100,-100,0,0,100,0.00,40.00,0,-999,0,0.00
2012-9-29,63,54,47,-100,-100,-100,0,0,100,0.00,40.00,0,-999,0,0.00
2012-9-30,67,57,49,-100,-100,-100,0,0,100,0.00,40.00,0,-999,0,0.00
2012-10-1,68,58,50,-100,-100,-100,0,0,100,0.00,40.00,0,-999,0,0.00
2012-10-2,67,56,51,-100,-100,-100,0,0,100,0.00,40.00,0,-999,0,0.00
2012-10-3,64,54,48,-100,-100,-100,0,0,100,0.00,40.00,0,-999,0,0.01
2012-10-4,61,51,44,-100,-100,-100,0,0,100,0.00,40.00,0,-999,0,0.01
2012-10-5,57,48,42,-100,-100,-100,0,0,100,0.00,40.00,0,-999,0,0.01
2012-10-6,58,46,41,-100,-100,-100,0,0,100,0.00,40.00,0,-999,0,0.00
2012-10-7,57,47,41,-100,-100,-100,0,0,100,0.00,40.00,0,-999,0,0.00
2012-10-8,53,43,37,-100,-100,-100,0,0,100,0.00,40.00,0,-999,0,0.00
2012-10-9,50,42,32,-100,-100,-100,0,0,100,0.00,40.00,0,-999,0,0.01
2012-10-10,50,45,36,-100,-100,-100,0,0,100,0.00,40.00,0,-999,0,0.00
2012-10-11,46,41,39,-100,-100,-100,0,0,100,0.00,40.00,0,-999,0,0.01
2012-10-12,50,43,37,-100,-100,-100,0,0,100,0.00,40.00,0,-999,0,0.01
2012-10-13,55,45,39,-100,-100,-100,0,0,100,0.00,40.00,0,-999,0,0.01
2012-10-14,62,48,39,-100,-100,-100,0,0,100,0.00,40.00,0,-999,0,0.00
2012-10-15,60,50,43,-100,-100,-100,0,0,100,0.00,40.00,0,-999,0,0.00
2012-10-16,61,51,43,-100,-100,-100,0,0,100,0.00,40.00,0,-999,0,0.00
2012-10-17,64,49,36,-100,-100,-100,0,0,100,0.00,40.00,0,-999,0,0.00
2012-10-18,67,52,42,-100,-100,-100,0,0,100,0.00,40.00,0,-999,0,0.00
2012-10-19,61,50,45,-100,-100,-100,0,0,100,0.00,40.00,0,-999,0,0.00
2012-10-20,53,45,38,-100,-100,-100,0,0,100,0.00,40.00,0,-999,0,0.01
2012-10-21,44,39,34,-100,-100,-100,0,0,100,0.00,40.00,0,-999,0,0.01
2012-10-22,35,28,23,-100,-100,-100,0,0,100,0.00,40.00,0,-999,0,0.02
2012-10-23,28,23,19,-100,-100,-100,0,0,100,0.00,40.00,0,-999,0,0.02
2012-10-24,28,24,19,-100,-100,-100,0,0,100,0.00,40.00,0,-999,0,0.02
2012-10-25,39,30,24,-100,-100,-100,0,0,100,0.00,40.00,0,-999,0,0.01
2012-10-26,51,40,23,-100,-100,-100,0,0,100,0.00,40.00,0,-999,0,0.00
2012-10-27,50,40,35,-100,-100,-100,0,0,100,0.00,40.00,0,-999,0,0.01
2012-10-28,56,45,37,-100,-100,-100,0,0,100,0.00,40.00,0,-999,0,0.00
2012-10-29,59,46,40,-100,-100,-100,0,0,100,0.00,40.00,0,-999,0,0.00
2012-10-30,57,46,40,-100,-100,-100,0,0,100,0.00,40.00,0,-999,0,0.00
2012-10-31,48,42,38,-100,-100,-100,0,0,100,0.00,40.00,0,-999,0,0.01
2012-11-1,39,35,31,-100,-100,-100,0,0,100,0.00,40.00,0,-999,0,0.01
2012-11-2,51,38,29,-100,-100,-100,0,0,100,0.00,40.00,0,-999,0,0.00
2012-11-3,53,42,36,-100,-100,-100,0,0,100,0.00,40.00,0,-999,0,0.00
2012-11-4,56,47,39,-100,-100,-100,0,0,100,0.00,40.00,0,-999,0,0.00
2012-11-5,61,50,43,-100,-100,-100,0,0,100,0.00,40.00,0,-999,0,0.00
2012-11-6,59,49,42,-100,-100,-100,0,0,100,0.00,40.00,0,-999,0,0.00
2012-11-7,52,44,37,-100,-100,-100,0,0,100,0.00,40.00,0,-999,0,0.01
2012-11-8,38,29,18,-100,-100,-100,0,0,100,0.00,40.00,0,-999,0,0.01
2012-11-9,23,16,12,-100,-100,-100,0,0,100,0.00,40.00,0,-999,0,0.01
2012-11-10,27,17,10,-100,-100,-100,0,0,100,0.00,40.00,0,-999,0,0.01
2012-11-11,37,25,9,-100,-100,-100,0,0,100,0.00,40.00,0,-999,0,0.00
2012-11-12,43,33,28,-100,-100,-100,0,0,100,0.00,40.00,0,-999,0,0.01
2012-11-13,45,36,29,-100,-100,-100,0,0,100,0.00,40.00,0,-999,0,0.00
2012-11-14,48,38,33,-100,-100,-100,0,0,100,0.00,40.00,0,-999,0,0.00
2012-11-15,48,38,31,-100,-100,-100,0,0,100,0.00,40.00,0,-999,0,0.01
2012-11-16,34,33,30,-100,-100,-100,0,0,100,0.00,40.00,0,-999,0,0.01
2012-11-17,35,33,29,-100,-100,-100,0,0,100,0.00,40.00,0,-999,0,0.02
2012-11-18,35,31,28,-100,-100,-100,0,0,100,0.00,40.00,0,-999,0,0.02
2012-11-19,38,32,27,-100,-100,-100,0,0,100,0.00,40.00,0,-999,0,0.01
2012-11-20,41,35,30,-100,-100,-100,0,0,100,0.00,40.00,0,-999,0,0.00
2012-11-21,37,34,29,-100,-100,-100,0,0,100,0.00,40.00,0,-999,0,0.01
2012-11-22,52,39,29,-100,-100,-100,0,0,100,0.00,40.00,0,-999,0,0.00
2012-11-23,54,43,38,-100,-100,-100,0,0,100,0.00,40.00,0,-999,0,0.00
2012-11-24,52,41,36,-100,-100,-100,0,0,100,0.00,40.00,0,-999,0,0.00
2012-11-25,48,38,31,-100,-100,-100,0,0,100,0.00,40.00,0,-999,0,0.00
2012-11-26,38,34,32,-100,-100,-100,0,0,100,0.00,40.00,0,-999,0,0.00
2012-11-27,41,37,32,-100,-100,-100,0,0,100,0.00,40.00,0,-999,0,0.00
2012-11-28,37,34,30,-100,-100,-100,0,0,100,0.00,40.00,0,-999,0,0.01
2012-11-29,37,34,31,-100,-100,-100,0,0,100,0.00,40.00,0,-999,0,0.01
2012-11-30,33,32,31,-100,-100,-100,0,0,100,0.00,40.00,0,-999,0,0.06
2012-12-1,38,34,30,-100,-100,-100,0,0,100,0.00,40.00,0,-999,0,0.02
2012-12-2,36,30,22,-100,-100,-100,0,0,100,0.00,40.00,0,-999,0,0.04
2012-12-3,37,31,25,-100,-100,-100,0,0,100,0.00,40.00,0,-999,0,0.01
2012-12-4,41,39,36,-100,-100,-100,0,0,100,0.00,40.00,0,-999,0,0.00
2012-12-5,37,35,34,-100,-100,-100,0,0,100,0.00,40.00,0,-999,0,0.04
2012-12-6,41,35,32,-100,-100,-100,0,0,100,0.00,40.00,0,-999,0,0.01
2012-12-7,44,35,30,-100,-100,-100,0,0,100,0.00,40.00,0,-999,0,0.00
2012-12-8,37,35,33,-100,-100,-100,0,0,100,0.00,40.00,0,-999,0,0.00
2012-12-9,40,36,33,-100,-100,-100,0,0,100,0.00,40.00,0,-999,0,0.00
2012-12-10,43,37,32,-100,-100,-100,0,0,100,0.00,40.00,0,-999,0,0.00
2012-12-11,39,32,29,-100,-100,-100,0,0,100,0.00,40.00,0,-999,0,0.00
2012-12-12,24,18,11,-100,-100,-100,0,0,100,0.00,40.00,0,-999,0,0.02
2012-12-13,23,14,9,-100,-100,-100,0,0,100,0.00,40.00,0,-999,0,0.00
2012-12-14,25,17,10,-100,-100,-100,0,0,100,0.00,40.00,0,-999,0,0.01
2012-12-15,23,16,7,-100,-100,-100,0,0,100,0.00,40.00,0,-999,0,0.01
2012-12-16,32,30,25,-100,-100,-100,0,0,100,0.00,40.00,0,-999,0,0.01
2012-12-17,31,29,23,-100,-100,-100,0,0,100,0.00,40.00,0,-999,0,0.02
2012-12-18,23,13,2,-100,-100,-100,0,0,100,0.00,40.00,0,-999,0,0.02
2012-12-19,30,19,1,-100,-100,-100,0,0,100,0.00,40.00,0,-999,0,0.01
2012-12-20,34,27,20,-100,-100,-100,0,0,100,0.00,40.00,0,-999,0,0.00
2012-12-21,29,27,22,-100,-100,-100,0,0,100,0.00,40.00,0,-999,0,0.01
2012-12-22,21,20,20,-100,-100,-100,0,0,100,0.00,40.00,0,-999,0,0.04
2012-12-23,27,24,21,-100,-100,-100,0,0,100,0.00,40.00,0,-999,0,0.05
2012-12-24,23,20,18,-100,-100,-100,0,0,100,0.00,40.00,0,-999,0,0.05
2012-12-25,29,26,23,-100,-100,-100,0,0,100,0.00,40.00,0,-999,0,0.02
2012-12-26,23,20,16,-100,-100,-100,0,0,100,0.00,40.00,0,-999,0,0.02
2012-12-27,23,14,7,-100,-100,-100,0,0,100,0.00,40.00,0,-999,0,0.00
2012-12-28,26,18,11,-100,-100,-100,0,0,100,0.00,40.00,0,-999,0,0.00
2012-12-29,22,17,14,-100,-100,-100,0,0,100,0.00,40.00,0,-999,0,0.00
2012-12-30,23,14,8,-100,-100,-100,0,0,100,0.00,40.00,0,-999,0,0.01
2012-12-31,27,17,8,-100,-100,-100,0,0,100,0.00,40.00,0,-999,0,0.00
2013-1-1,28,23,14,-100,-100,-100,0,0,100,0.00,40.00,0,-999,0,0.00